Terminal Aerodrome Forecast
Issued by NWS

Home | Current Version | Previous Version | Text Only | Print | Product List | Glossary On
Versions: 1 2 3 4 5 6 7 8 9 10 11 12 13 14 15 16 17 18 19 20 21
000
FTUS41 KOKX 211700
TAFSWF
TAF
KSWF 211727Z 2118/2224 30017G27KT P6SM SCT050
      TEMPO 2118/2121 BKN050
     FM212200 30013G20KT P6SM FEW050
     FM220000 28006KT P6SM FEW060
     FM220500 VRB03KT P6SM FEW100
     FM221400 24008KT P6SM BKN250
     FM221800 24013G20KT P6SM SCT050 BKN150
      AMD NOT SKED=

USA.gov is the U.S. government's official web portal to all federal, state and local government web resources and services.